createdAt,value
2022-09-04T00:00:10.383Z,53.56
2022-09-04T00:03:01.613Z,53.75
2022-09-04T00:05:37.452Z,53.75
2022-09-04T00:08:42.312Z,53.39
2022-09-04T00:11:26.711Z,53.67
2022-09-04T00:14:01.533Z,53.34
2022-09-04T00:16:36.794Z,53.68
2022-09-04T00:19:14.138Z,53.72
2022-09-04T00:21:50.953Z,53.63
2022-09-04T00:24:23.340Z,53.93
2022-09-04T00:26:58.834Z,53.93
2022-09-04T00:29:41.550Z,53.68
2022-09-04T00:32:19.067Z,53.77
2022-09-04T00:35:02.496Z,53.79
2022-09-04T00:37:38.415Z,53.72
2022-09-04T00:40:13.299Z,53.81
2022-09-04T00:43:06.628Z,54.14
2022-09-04T00:45:55.961Z,54.11
2022-09-04T00:49:17.654Z,53.89
2022-09-04T00:52:01.727Z,54.20
2022-09-04T00:54:58.173Z,54.14
2022-09-04T00:58:00.154Z,54.07
2022-09-04T01:00:30.303Z,54.25
2022-09-04T01:03:44.487Z,54.04
2022-09-04T01:06:32.980Z,54.28
2022-09-04T01:09:41.585Z,54.11
2022-09-04T01:12:27.445Z,54.18
2022-09-04T01:15:11.392Z,54.10
2022-09-04T01:17:52.779Z,54.11
2022-09-04T01:20:35.233Z,54.16
2022-09-04T01:23:23.435Z,53.99
2022-09-04T01:26:10.168Z,53.99
2022-09-04T01:28:54.733Z,53.93
2022-09-04T01:31:36.528Z,54.00
2022-09-04T01:34:24.251Z,54.07
2022-09-04T01:37:01.269Z,53.99
2022-09-04T01:39:33.476Z,54.17
2022-09-04T01:42:10.457Z,53.88
2022-09-04T01:44:38.769Z,54.01
2022-09-04T01:47:17.309Z,53.88
2022-09-04T01:49:52.026Z,53.97
2022-09-04T01:52:37.837Z,53.89
2022-09-04T01:55:20.244Z,54.09
2022-09-04T01:58:07.231Z,54.17
2022-09-04T02:00:47.432Z,54.20
2022-09-04T02:03:26.581Z,54.46
2022-09-04T02:06:08.575Z,54.46
2022-09-04T02:08:57.188Z,54.59
2022-09-04T02:11:29.789Z,54.72
2022-09-04T02:14:27.438Z,54.50
2022-09-04T02:17:11.256Z,54.69
2022-09-04T02:20:05.021Z,54.60
2022-09-04T02:25:29.735Z,54.55
2022-09-04T02:28:14.801Z,54.42
2022-09-04T02:30:54.500Z,54.47
2022-09-04T02:33:32.355Z,54.44
2022-09-04T02:36:08.534Z,54.49
2022-09-04T02:38:48.959Z,54.35
2022-09-04T02:41:29.226Z,54.47
2022-09-04T02:44:17.340Z,54.43
2022-09-04T02:47:02.690Z,54.43
2022-09-04T02:49:42.747Z,54.71
2022-09-04T02:52:33.358Z,54.40
2022-09-04T02:55:25.069Z,54.46
2022-09-04T02:58:11.387Z,54.54
2022-09-04T03:00:49.044Z,54.60
2022-09-04T03:03:22.625Z,54.53
2022-09-04T03:06:01.721Z,54.63
2022-09-04T03:08:37.784Z,54.50
2022-09-04T03:11:15.386Z,54.55
2022-09-04T03:13:53.214Z,54.58
2022-09-04T03:16:31.320Z,54.68
2022-09-04T03:19:17.100Z,54.55
2022-09-04T03:21:52.086Z,54.75
2022-09-04T03:24:29.743Z,54.74
2022-09-04T03:27:02.993Z,54.74
2022-09-04T03:29:40.938Z,54.80
2022-09-04T03:32:17.295Z,55.03
2022-09-04T03:34:55.033Z,55.09
2022-09-04T03:37:47.115Z,55.24
2022-09-04T03:40:28.161Z,55.39
2022-09-04T03:43:21.314Z,55.38
2022-09-04T03:46:02.341Z,55.48
2022-09-04T03:48:55.358Z,55.44
2022-09-04T03:51:40.479Z,55.45
2022-09-04T03:54:28.200Z,55.56
2022-09-04T03:57:21.973Z,55.48
2022-09-04T04:00:07.999Z,55.66
2022-09-04T04:03:07.258Z,55.67
2022-09-04T04:05:49.523Z,55.72
2022-09-04T04:09:03.881Z,55.53
2022-09-04T04:11:53.365Z,55.64
2022-09-04T04:14:52.292Z,55.63
2022-09-04T04:17:44.630Z,55.78
2022-09-04T04:20:24.938Z,55.83
2022-09-04T04:23:17.275Z,56.00
2022-09-04T04:26:03.938Z,56.01
2022-09-04T04:29:00.303Z,55.96
2022-09-04T04:32:10.596Z,55.97
2022-09-04T04:34:57.028Z,55.98
2022-09-04T04:37:39.496Z,55.99
2022-09-04T04:40:17.298Z,56.18
2022-09-04T04:42:55.084Z,56.23
2022-09-04T04:45:47.130Z,56.31
2022-09-04T04:49:07.422Z,56.11
2022-09-04T04:51:53.123Z,56.29
2022-09-04T04:54:51.284Z,56.39
2022-09-04T04:57:31.360Z,56.37
2022-09-04T05:00:11.515Z,56.60
2022-09-04T05:02:53.262Z,56.69
2022-09-04T05:05:54.018Z,56.66
2022-09-04T05:08:35.819Z,56.86
2022-09-04T05:11:12.149Z,56.91
2022-09-04T05:13:52.886Z,56.89
2022-09-04T05:16:33.805Z,56.91
2022-09-04T05:19:09.911Z,57.11
2022-09-04T05:21:48.561Z,57.02
2022-09-04T05:24:25.771Z,57.11
2022-09-04T05:26:59.034Z,57.20
2022-09-04T05:29:37.699Z,57.25
2022-09-04T05:32:17.950Z,57.27
2022-09-04T05:35:05.627Z,57.20
2022-09-04T05:37:43.324Z,57.40
2022-09-04T05:40:23.453Z,57.51
2022-09-04T05:43:07.878Z,57.37
2022-09-04T05:45:50.988Z,57.53
2022-09-04T05:48:26.704Z,57.68
2022-09-04T05:51:08.410Z,57.77
2022-09-04T05:54:10.451Z,57.91
2022-09-04T05:57:14.022Z,58.02
2022-09-04T06:00:09.909Z,58.26
2022-09-04T06:03:42.704Z,58.21
2022-09-04T06:06:22.989Z,58.41
2022-09-04T06:09:27.841Z,58.42
2022-09-04T06:12:30.292Z,58.38
2022-09-04T06:15:41.737Z,58.29
2022-09-04T06:18:45.143Z,58.25
2022-09-04T06:21:49.331Z,58.25
2022-09-04T06:24:34.023Z,58.28
2022-09-04T06:27:39.209Z,58.22
2022-09-04T06:30:10.527Z,58.16
2022-09-04T06:33:32.197Z,58.08
2022-09-04T06:36:25.162Z,58.36
2022-09-04T06:39:27.954Z,58.57
2022-09-04T06:42:16.749Z,58.84
2022-09-04T06:45:02.964Z,58.99
2022-09-04T06:47:52.170Z,58.52
2022-09-04T06:50:33.322Z,58.56
2022-09-04T06:53:21.445Z,58.76
2022-09-04T06:56:08.094Z,58.87
2022-09-04T06:59:15.354Z,58.69
2022-09-04T07:02:01.136Z,58.91
2022-09-04T07:04:46.401Z,58.40
2022-09-04T07:07:28.521Z,57.77
2022-09-04T07:10:09.754Z,57.79
2022-09-04T07:13:19.314Z,57.45
2022-09-04T07:16:18.185Z,56.71
2022-09-04T07:19:18.726Z,56.93
2022-09-04T07:22:03.927Z,56.66
2022-09-04T07:24:56.794Z,56.22
2022-09-04T07:27:41.825Z,56.29
2022-09-04T07:30:13.625Z,55.94
2022-09-04T07:32:50.466Z,55.91
2022-09-04T07:35:25.411Z,56.17
2022-09-04T07:38:01.106Z,56.04
2022-09-04T07:40:38.280Z,55.41
2022-09-04T07:43:21.434Z,55.60
2022-09-04T07:46:00.475Z,55.55
2022-09-04T07:48:36.013Z,54.90
2022-09-04T07:51:10.313Z,54.82
2022-09-04T07:54:20.535Z,55.09
2022-09-04T07:57:21.288Z,55.29
2022-09-04T08:00:13.673Z,54.66
2022-09-04T08:03:26.734Z,54.43
2022-09-04T08:06:02.784Z,54.02
2022-09-04T08:09:04.850Z,53.77
2022-09-04T08:11:59.265Z,53.38
2022-09-04T08:14:52.234Z,53.75
2022-09-04T08:18:05.091Z,53.21
2022-09-04T08:20:47.266Z,52.60
2022-09-04T08:23:56.466Z,52.75
2022-09-04T08:26:37.862Z,52.58
2022-09-04T08:29:33.797Z,52.70
2022-09-04T08:32:18.817Z,52.10
2022-09-04T08:35:06.548Z,51.49
2022-09-04T08:37:51.063Z,51.56
2022-09-04T08:41:06.906Z,51.70
2022-09-04T08:44:13.527Z,50.52
2022-09-04T08:47:33.015Z,50.67
2022-09-04T08:50:34.367Z,50.41
2022-09-04T08:53:39.340Z,50.50
2022-09-04T08:56:20.481Z,50.25
2022-09-04T08:59:39.240Z,50.28
2022-09-04T09:03:03.485Z,50.19
2022-09-04T09:06:15.274Z,49.93
2022-09-04T09:09:44.177Z,49.60
2022-09-04T09:12:56.951Z,48.07
2022-09-04T09:15:50.571Z,47.25
2022-09-04T09:18:40.347Z,47.28
2022-09-04T09:21:15.817Z,46.99
2022-09-04T09:24:22.723Z,47.46
2022-09-04T09:27:05.839Z,47.02
2022-09-04T09:30:03.452Z,46.81
2022-09-04T09:33:25.099Z,46.57
2022-09-04T09:36:29.906Z,46.67
2022-09-04T09:39:33.595Z,46.40
2022-09-04T09:42:48.374Z,46.02
2022-09-04T09:46:13.642Z,45.20
2022-09-04T09:49:26.028Z,46.18
2022-09-04T09:52:33.285Z,46.54
2022-09-04T09:55:58.584Z,46.09
2022-09-04T09:59:06.296Z,45.15
2022-09-04T10:02:14.121Z,44.67
2022-09-04T10:05:11.975Z,44.12
2022-09-04T10:08:35.932Z,44.11
2022-09-04T10:11:45.710Z,44.01
2022-09-04T10:14:52.598Z,43.53
2022-09-04T10:18:18.544Z,43.05
2022-09-04T10:21:20.787Z,43.08
2022-09-04T10:24:24.935Z,43.36
2022-09-04T10:27:49.294Z,43.22
2022-09-04T10:30:20.170Z,41.85
2022-09-04T10:33:29.439Z,41.03
2022-09-04T10:36:10.062Z,41.12
2022-09-04T10:39:02.518Z,41.35
2022-09-04T10:41:53.787Z,41.09
2022-09-04T10:45:04.818Z,41.21
2022-09-04T10:48:21.723Z,41.07
2022-09-04T10:51:36.457Z,40.69
2022-09-04T10:54:59.974Z,39.90
2022-09-04T10:57:49.096Z,41.20
2022-09-04T11:00:20.407Z,39.78
2022-09-04T11:03:41.663Z,40.69
2022-09-04T11:06:58.233Z,40.07
2022-09-04T11:09:57.885Z,40.48
2022-09-04T11:13:10.738Z,40.38
2022-09-04T11:16:06.219Z,40.74
2022-09-04T11:19:26.511Z,40.77
2022-09-04T11:22:44.104Z,39.65
2022-09-04T11:26:13.915Z,40.27
2022-09-04T11:29:12.442Z,39.43
2022-09-04T11:32:27.303Z,39.04
2022-09-04T11:35:36.320Z,38.98
2022-09-04T11:38:18.532Z,39.23
2022-09-04T11:41:32.454Z,39.48
2022-09-04T11:45:00.588Z,40.50
2022-09-04T11:48:21.147Z,40.03
2022-09-04T11:51:07.458Z,39.80
2022-09-04T11:54:10.461Z,40.07
2022-09-04T11:57:04.075Z,39.89
2022-09-04T12:00:11.755Z,38.87
2022-09-04T12:03:27.233Z,39.25
2022-09-04T12:06:23.832Z,38.79
2022-09-04T12:10:01.056Z,39.19
2022-09-04T12:12:48.695Z,38.31
2022-09-04T12:15:56.193Z,37.18
2022-09-04T12:19:42.364Z,36.89
2022-09-04T12:22:51.808Z,37.35
2022-09-04T12:25:49.691Z,36.52
2022-09-04T12:29:05.925Z,36.25
2022-09-04T12:32:21.854Z,35.06
2022-09-04T12:35:43.149Z,34.66
2022-09-04T12:39:00.471Z,36.34
2022-09-04T12:41:36.996Z,36.29
2022-09-04T12:44:15.670Z,36.38
2022-09-04T12:47:07.801Z,35.67
2022-09-04T12:50:05.895Z,35.50
2022-09-04T12:52:52.850Z,35.54
2022-09-04T12:55:33.440Z,34.86
2022-09-04T12:58:15.808Z,34.47
2022-09-04T13:00:56.236Z,34.75
2022-09-04T13:03:38.363Z,34.73
2022-09-04T13:06:27.251Z,33.70
2022-09-04T13:09:13.744Z,33.16
2022-09-04T13:11:57.847Z,33.04
2022-09-04T13:15:19.561Z,33.13
2022-09-04T13:17:59.315Z,33.16
2022-09-04T13:20:36.181Z,33.56
2022-09-04T13:23:27.377Z,33.67
2022-09-04T13:26:18.442Z,34.05
2022-09-04T13:28:58.387Z,34.30
2022-09-04T13:31:48.540Z,34.39
2022-09-04T13:34:26.476Z,34.26
2022-09-04T13:37:07.633Z,34.74
2022-09-04T13:40:13.078Z,34.43
2022-09-04T13:43:34.935Z,34.32
2022-09-04T13:46:11.578Z,34.12
2022-09-04T13:48:46.235Z,34.47
2022-09-04T13:51:19.749Z,34.08
2022-09-04T13:54:05.327Z,34.11
2022-09-04T13:56:41.151Z,34.44
2022-09-04T13:59:16.215Z,34.46
2022-09-04T14:01:50.297Z,34.41
2022-09-04T14:04:26.597Z,35.00
2022-09-04T14:07:07.059Z,34.96
2022-09-04T14:09:41.436Z,35.33
2022-09-04T14:12:41.005Z,35.73
2022-09-04T14:15:49.652Z,35.83
2022-09-04T14:18:45.224Z,35.69
2022-09-04T14:21:24.949Z,35.45
2022-09-04T14:24:03.481Z,35.57
2022-09-04T14:26:44.177Z,35.72
2022-09-04T14:29:25.554Z,35.00
2022-09-04T14:32:10.716Z,34.74
2022-09-04T14:34:56.115Z,34.75
2022-09-04T14:37:48.384Z,34.71
2022-09-04T14:40:21.617Z,34.14
2022-09-04T14:42:58.365Z,34.17
2022-09-04T14:45:54.603Z,34.14
2022-09-04T14:48:24.336Z,34.71
2022-09-04T14:51:00.017Z,33.83
2022-09-04T14:53:32.375Z,33.91
2022-09-04T14:56:29.476Z,33.93
2022-09-04T14:59:08.918Z,33.28
2022-09-04T15:01:57.018Z,33.47
2022-09-04T15:04:34.122Z,33.38
2022-09-04T15:07:26.918Z,33.40
2022-09-04T15:10:07.589Z,33.78
2022-09-04T15:12:39.139Z,33.35
2022-09-04T15:15:12.670Z,33.04
2022-09-04T15:17:51.495Z,33.06
2022-09-04T15:20:23.820Z,32.60
2022-09-04T15:22:59.718Z,32.55
2022-09-04T15:25:58.734Z,32.71
2022-09-04T15:28:38.527Z,32.51
2022-09-04T15:31:16.520Z,32.15
2022-09-04T15:33:48.169Z,32.45
2022-09-04T15:36:20.957Z,32.32
2022-09-04T15:38:55.533Z,31.95
2022-09-04T15:41:36.743Z,32.44
2022-09-04T15:44:19.409Z,33.19
2022-09-04T15:47:00.685Z,32.88
2022-09-04T15:49:45.157Z,32.93
2022-09-04T15:52:33.781Z,32.50
2022-09-04T15:55:10.991Z,33.20
2022-09-04T15:57:59.845Z,32.87
2022-09-04T16:00:32.073Z,32.59
2022-09-04T16:03:12.171Z,33.01
2022-09-04T16:05:45.973Z,33.56
2022-09-04T16:08:23.692Z,33.63
2022-09-04T16:11:02.397Z,33.73
2022-09-04T16:13:46.995Z,33.74
2022-09-04T16:16:22.874Z,34.21
2022-09-04T16:19:04.710Z,34.00
2022-09-04T16:21:49.053Z,34.25
2022-09-04T16:24:20.690Z,34.49
2022-09-04T16:26:54.892Z,33.90
2022-09-04T16:29:36.653Z,34.28
2022-09-04T16:32:10.859Z,34.08
2022-09-04T16:34:47.551Z,34.45
2022-09-04T16:37:23.804Z,34.49
2022-09-04T16:40:07.277Z,34.96
2022-09-04T16:42:44.939Z,35.17
2022-09-04T16:45:18.960Z,34.84
2022-09-04T16:47:54.536Z,34.57
2022-09-04T16:50:28.592Z,35.14
2022-09-04T16:53:13.624Z,34.57
2022-09-04T16:55:50.893Z,35.13
2022-09-04T16:58:40.092Z,35.18
2022-09-04T17:01:17.742Z,35.84
2022-09-04T17:04:19.523Z,35.49
2022-09-04T17:07:03.546Z,35.94
2022-09-04T17:09:45.934Z,36.32
2022-09-04T17:12:28.934Z,36.09
2022-09-04T17:15:09.759Z,35.82
2022-09-04T17:17:42.536Z,36.16
2022-09-04T17:20:22.632Z,36.07
2022-09-04T17:29:00.160Z,36.07
2022-09-04T17:29:17.726Z,36.09
2022-09-04T17:29:33.736Z,36.47
2022-09-04T17:32:25.642Z,36.54
2022-09-04T17:40:52.073Z,36.95
2022-09-04T17:40:52.537Z,37.49
2022-09-04T17:41:40.760Z,37.35
2022-09-04T17:44:34.992Z,37.21
2022-09-04T17:47:21.316Z,37.87
2022-09-04T17:49:51.955Z,38.13
2022-09-04T17:52:28.411Z,38.18
2022-09-04T17:55:04.880Z,38.30
2022-09-04T17:57:57.166Z,38.59
2022-09-04T18:00:32.786Z,38.83
2022-09-04T18:03:08.954Z,38.69
2022-09-04T18:05:53.565Z,38.79
2022-09-04T18:08:29.740Z,39.37
2022-09-04T18:11:04.043Z,39.45
2022-09-04T18:13:40.663Z,39.61
2022-09-04T18:17:11.259Z,39.79
2022-09-04T18:19:47.286Z,40.10
2022-09-04T18:23:02.994Z,40.11
2022-09-04T18:25:36.993Z,40.43
2022-09-04T18:28:12.692Z,40.69
2022-09-04T18:37:07.403Z,40.73
2022-09-04T18:37:20.115Z,40.96
2022-09-04T18:37:44.351Z,41.28
2022-09-04T18:40:11.645Z,41.68
2022-09-04T18:50:28.924Z,41.96
2022-09-04T18:50:40.106Z,41.70
2022-09-04T18:50:50.389Z,41.57
2022-09-04T18:51:31.247Z,42.05
2022-09-04T18:54:10.402Z,42.02
2022-09-04T18:56:47.065Z,42.20
2022-09-04T18:59:20.994Z,42.14
2022-09-04T19:01:56.527Z,42.57
2022-09-04T19:04:47.663Z,42.36
2022-09-04T19:07:31.894Z,42.75
2022-09-04T19:10:10.879Z,42.85
2022-09-04T19:12:58.591Z,42.91
2022-09-04T19:15:36.789Z,43.22
2022-09-04T19:18:22.571Z,43.28
2022-09-04T19:20:56.768Z,43.39
2022-09-04T19:23:34.802Z,43.44
2022-09-04T19:26:18.725Z,43.53
2022-09-04T19:28:52.876Z,43.77
2022-09-04T19:31:32.614Z,43.82
2022-09-04T19:34:09.127Z,44.01
2022-09-04T19:36:46.478Z,44.08
2022-09-04T19:45:57.373Z,44.17
2022-09-04T19:46:16.658Z,44.12
2022-09-04T19:46:16.923Z,44.23
2022-09-04T19:48:33.492Z,44.28
2022-09-04T19:53:35.805Z,44.46
2022-09-04T19:54:10.327Z,44.58
2022-09-04T19:57:31.548Z,44.89
2022-09-04T19:59:45.524Z,44.99
2022-09-04T20:02:24.235Z,45.09
2022-09-04T20:04:57.342Z,45.18
2022-09-04T20:07:41.468Z,45.33
2022-09-04T20:10:20.078Z,45.33
2022-09-04T20:12:56.284Z,45.32
2022-09-04T20:15:31.821Z,45.41
2022-09-04T20:18:12.362Z,45.64
2022-09-04T20:20:56.334Z,45.67
2022-09-04T20:23:34.159Z,45.85
2022-09-04T20:26:19.556Z,45.97
2022-09-04T20:29:08.417Z,46.02
2022-09-04T20:31:49.435Z,46.28
2022-09-04T20:34:28.354Z,46.17
2022-09-04T20:37:20.033Z,46.29
2022-09-04T20:40:01.199Z,46.74
2022-09-04T20:42:35.842Z,46.75
2022-09-04T20:47:41.022Z,46.65
2022-09-04T20:52:55.269Z,46.79
2022-09-04T20:52:55.661Z,46.77
2022-09-04T20:54:28.450Z,47.05
2022-09-04T21:00:10.746Z,46.78
2022-09-04T21:03:09.575Z,47.22
2022-09-04T21:03:12.538Z,47.14
2022-09-04T21:06:07.289Z,47.14
2022-09-04T21:08:46.658Z,47.26
2022-09-04T21:11:41.685Z,47.57
2022-09-04T21:14:14.192Z,47.82
2022-09-04T21:17:34.041Z,47.65
2022-09-04T21:20:36.513Z,47.68
2022-09-04T21:24:32.642Z,47.71
2022-09-04T21:27:58.014Z,47.55
2022-09-04T21:30:50.903Z,48.03
2022-09-04T21:33:29.937Z,48.03
2022-09-04T21:36:25.383Z,48.32
2022-09-04T21:39:43.648Z,48.14
2022-09-04T21:42:50.564Z,48.24
2022-09-04T21:45:40.674Z,48.36
2022-09-04T21:48:45.811Z,48.41
2022-09-04T21:51:44.361Z,48.76
2022-09-04T21:57:08.952Z,48.30
2022-09-04T22:02:38.834Z,48.65
2022-09-04T22:02:49.762Z,48.57
2022-09-04T22:04:47.281Z,48.97
2022-09-04T22:13:26.239Z,48.89
2022-09-04T22:13:42.098Z,48.72
2022-09-04T22:13:50.312Z,48.88
2022-09-04T22:16:41.878Z,48.95
2022-09-04T22:19:42.290Z,49.39
2022-09-04T22:22:49.771Z,49.33
2022-09-04T22:25:46.183Z,49.46
2022-09-04T22:28:55.929Z,49.70
2022-09-04T22:32:04.214Z,49.49
2022-09-04T22:35:35.668Z,49.44
2022-09-04T22:38:54.668Z,49.90
2022-09-04T22:41:59.889Z,49.75
2022-09-04T22:44:46.762Z,49.75
2022-09-04T22:47:35.911Z,50.00
2022-09-04T22:50:50.882Z,49.74
2022-09-04T22:53:47.599Z,49.86
2022-09-04T22:56:24.213Z,50.08
2022-09-04T22:59:52.941Z,50.04
2022-09-04T23:03:10.189Z,50.10
2022-09-04T23:06:27.423Z,50.27
2022-09-04T23:13:44.006Z,50.23
2022-09-04T23:13:57.111Z,49.98
2022-09-04T23:16:36.601Z,50.40
2022-09-04T23:24:42.463Z,50.49
2022-09-04T23:26:41.493Z,50.41
2022-09-04T23:26:50.368Z,50.38
2022-09-04T23:29:23.281Z,50.71
2022-09-04T23:32:22.459Z,50.51
2022-09-04T23:35:14.912Z,51.17
2022-09-04T23:38:27.540Z,51.08
2022-09-04T23:40:58.331Z,51.15
2022-09-04T23:44:16.851Z,51.15
2022-09-04T23:47:48.162Z,51.36
2022-09-04T23:50:31.253Z,51.32
2022-09-04T23:53:13.296Z,51.23
2022-09-04T23:56:12.469Z,50.83
2022-09-04T23:59:12.391Z,51.18
